Startpagina
METAR-TAF:

METAR-TAF

Vliegvelden :

Internationale luchthaven Milaan Linate

Milaan, Italië

breedte: 45-26N, lengte: 009-17E, hoogte: 107 m

Actueel weer

Dit bericht is 21 minuten geleden gemaakt, om 15:50 UTC
Wind 2 kt uit variabele richting
Temperatuur 26°C
Vochtigheid 65%
Druk 1013 hPa
Zicht 10 km of meer
Verspreide wolken op 2000 ft
Verspreide wolken op 7000 ft

METAR: LIML 261550Z VRB02KT 9999 SCT020 SCT070 26/19 Q1013 NOSIG

Tijdstip: 18:11 (16:11 UTC)

Verwachting

Dit bericht is 5 uur en het 11 minuten geleden gemaakt, om 11:00 UTC
Verwachting geldig van 26 om 12 UTC tot 27 om 12 UTC
Wind 5 kt uit variabele richting
Zicht 10 km of meer
Gebroken wolken op 6000 ft
Tijdelijke
van 26 om 12 UTC tot 27 om 02 UTC
Zicht: 4000 m
onweer, regen

TAF: LIML 261100Z 2612/2712 VRB05KT 9999 BKN060 TEMPO 2612/2702 4000 TSRA

Waarnemingen en weersverwachtingen van meer dan 4000 vliegvelden (METAR en TAF).

De beschikbare stations zijn de gele en rode punten op de kaart.

Ga met uw muis naar het station om de naam te zien.

Klik dan om waarnemingen en weersverwachtingen te zien.

kaart wijzigen: klik op de groene knoppen met een zwart kruis om in te zoomen, op de groene knop met een streepje om uit te zoomen of op de groene pijlen voor aangrenzende kaarten.


METAR-TAF: